Time;durP1;ratioP1;P1;durP2;ratioP2;P2;SDS_P1;SDS_P2;PMS_P1;PMS_P2;Temp;Humidity;BMP_temperature;BMP_pressure;BME280_temperature;BME280_humidity;BME280_pressure;Samples;Min_cycle;Max_cycle;Signal;HPM_P1;HPM_P2
2023/11/23 00:00:03;;;;;;;19.30;7.60;;;;;;;;;;10531146;28;20043;-73
2023/11/23 00:05:07;;;;;;;10.27;3.75;;;;;;;;;;10554359;27;20481;-74
2023/11/23 00:10:11;;;;;;;15.32;4.80;;;;;;;;;;10522707;28;20187;-73
2023/11/23 00:15:16;;;;;;;15.48;5.82;;;;;;;;;;10535103;27;20050;-74
2023/11/23 00:20:19;;;;;;;17.67;6.03;;;;;;;;;;10516000;28;20050;-74
2023/11/23 00:25:22;;;;;;;17.23;6.63;;;;;;;;;;10534492;28;20042;-74
2023/11/23 00:30:26;;;;;;;18.25;6.43;;;;;;;;;;10534054;28;20698;-73
2023/11/23 00:35:29;;;;;;;14.30;5.60;;;;;;;;;;10555421;27;20031;-74
2023/11/23 00:40:32;;;;;;;17.88;6.60;;;;;;;;;;10572136;27;20043;-73
2023/11/23 00:45:37;;;;;;;25.95;9.45;;;;;;;;;;10534284;28;20497;-74
2023/11/23 00:50:39;;;;;;;22.60;7.35;;;;;;;;;;10533979;28;20036;-74
2023/11/23 00:55:43;;;;;;;13.10;4.68;;;;;;;;;;10536851;28;20039;-76
2023/11/23 01:00:48;;;;;;;20.50;7.90;;;;;;;;;;10535493;28;20051;-74
2023/11/23 01:05:50;;;;;;;22.35;8.80;;;;;;;;;;10535611;28;20032;-74
2023/11/23 01:10:53;;;;;;;20.80;8.13;;;;;;;;;;10529166;28;20044;-74
2023/11/23 01:15:57;;;;;;;22.52;8.35;;;;;;;;;;10549282;28;20036;-74
2023/11/23 01:21:00;;;;;;;23.48;8.88;;;;;;;;;;10546831;28;20469;-74
2023/11/23 01:26:03;;;;;;;22.33;8.05;;;;;;;;;;10528580;28;20559;-75
2023/11/23 01:31:09;;;;;;;20.73;8.02;;;;;;;;;;10550608;28;20081;-74
2023/11/23 01:36:12;;;;;;;20.33;7.35;;;;;;;;;;10531808;28;20134;-74
2023/11/23 01:41:15;;;;;;;23.13;8.10;;;;;;;;;;10550933;28;20058;-74
2023/11/23 01:46:21;;;;;;;19.65;7.63;;;;;;;;;;10526815;28;20196;-74
2023/11/23 01:51:24;;;;;;;19.77;7.45;;;;;;;;;;10526471;28;20050;-74
2023/11/23 01:56:29;;;;;;;21.17;7.30;;;;;;;;;;10514579;28;20054;-75
2023/11/23 02:01:36;;;;;;;23.85;8.00;;;;;;;;;;10527892;28;20120;-75
2023/11/23 02:06:40;;;;;;;19.98;7.38;;;;;;;;;;10551404;27;20044;-76
2023/11/23 02:11:45;;;;;;;17.27;6.75;;;;;;;;;;10517348;28;20097;-75
2023/11/23 02:16:49;;;;;;;11.55;4.35;;;;;;;;;;10530344;28;20533;-75
2023/11/23 02:21:52;;;;;;;19.85;6.35;;;;;;;;;;10536354;27;20126;-75
2023/11/23 02:26:57;;;;;;;14.25;5.00;;;;;;;;;;10537448;27;20055;-75
2023/11/23 02:32:05;;;;;;;19.73;7.40;;;;;;;;;;10566004;27;20588;-76
2023/11/23 02:37:11;;;;;;;21.70;6.85;;;;;;;;;;10531558;27;20481;-75
2023/11/23 02:42:17;;;;;;;17.83;7.05;;;;;;;;;;10549484;27;20040;-75
2023/11/23 02:47:20;;;;;;;;;;;;;;;;;;10534178;28;20389;-75
2023/11/23 02:52:22;;;;;;;14.80;4.70;;;;;;;;;;10555756;27;19927;-75
2023/11/23 02:57:27;;;;;;;16.52;5.00;;;;;;;;;;10513742;27;20203;-75
2023/11/23 03:02:30;;;;;;;12.57;4.32;;;;;;;;;;10533966;28;20149;-74
2023/11/23 03:07:33;;;;;;;18.83;6.57;;;;;;;;;;10540362;28;20121;-75
2023/11/23 03:12:37;;;;;;;11.73;4.80;;;;;;;;;;10531307;27;20128;-75
2023/11/23 03:17:40;;;;;;;18.80;6.60;;;;;;;;;;10549036;27;20050;-75
2023/11/23 03:22:43;;;;;;;15.63;5.03;;;;;;;;;;10534740;27;20434;-75
2023/11/23 03:27:47;;;;;;;17.65;6.22;;;;;;;;;;10532438;28;20043;-74
2023/11/23 03:32:50;;;;;;;16.70;6.00;;;;;;;;;;10536290;27;20578;-75
2023/11/23 03:37:53;;;;;;;17.38;5.50;;;;;;;;;;10540099;27;20126;-75
2023/11/23 03:42:58;;;;;;;14.35;6.20;;;;;;;;;;10530975;27;20107;-74
2023/11/23 03:48:01;;;;;;;;;;;;;;;;;;10533490;27;20044;-75
2023/11/23 03:53:05;;;;;;;19.50;7.18;;;;;;;;;;10551051;27;19932;-75
2023/11/23 03:58:09;;;;;;;19.10;6.87;;;;;;;;;;10552755;27;20132;-74
2023/11/23 04:03:12;;;;;;;14.90;5.55;;;;;;;;;;10531767;28;20059;-75
2023/11/23 04:08:16;;;;;;;19.63;7.20;;;;;;;;;;10529114;27;20043;-75
2023/11/23 04:13:22;;;;;;;17.55;6.35;;;;;;;;;;10537717;28;20047;-75
2023/11/23 04:18:25;;;;;;;16.35;5.45;;;;;;;;;;10533658;28;20070;-75
2023/11/23 04:23:28;;;;;;;18.25;6.88;;;;;;;;;;10538911;27;20196;-75
2023/11/23 04:28:34;;;;;;;15.98;5.60;;;;;;;;;;10532172;28;20059;-75
2023/11/23 04:33:36;;;;;;;22.13;7.35;;;;;;;;;;10549915;28;20040;-74
2023/11/23 04:38:40;;;;;;;5.57;2.65;;;;;;;;;;10535535;28;20028;-75
2023/11/23 04:43:44;;;;;;;14.73;5.32;;;;;;;;;;10550367;28;20054;-76
2023/11/23 04:48:47;;;;;;;15.52;5.28;;;;;;;;;;10535528;28;20116;-75
2023/11/23 04:53:50;;;;;;;18.35;6.45;;;;;;;;;;10553732;28;20037;-74
2023/11/23 04:58:55;;;;;;;7.88;3.47;;;;;;;;;;10530932;28;20056;-76
2023/11/23 05:03:58;;;;;;;12.20;5.15;;;;;;;;;;10537177;28;20138;-74
2023/11/23 05:09:07;;;;;;;10.95;4.90;;;;;;;;;;10530090;28;20525;-75
2023/11/23 05:14:11;;;;;;;13.70;3.87;;;;;;;;;;10535660;28;20044;-74
2023/11/23 05:19:14;;;;;;;14.98;4.90;;;;;;;;;;10534922;28;20484;-75
2023/11/23 05:24:33;;;;;;;14.68;5.15;;;;;;;;;;10549149;27;20048;-74
2023/11/23 05:29:37;;;;;;;14.90;6.07;;;;;;;;;;10552699;28;20056;-74
2023/11/23 05:34:41;;;;;;;14.00;5.15;;;;;;;;;;10552215;28;20096;-74
2023/11/23 05:39:43;;;;;;;14.18;5.57;;;;;;;;;;10539400;27;20127;-75
2023/11/23 05:44:48;;;;;;;14.68;5.38;;;;;;;;;;10542488;27;20036;-74
2023/11/23 05:49:51;;;;;;;18.48;6.90;;;;;;;;;;10560834;27;20146;-76
2023/11/23 05:54:54;;;;;;;13.90;4.53;;;;;;;;;;10545321;27;20071;-76
2023/11/23 05:59:59;;;;;;;20.63;7.13;;;;;;;;;;10539263;27;20048;-75
2023/11/23 06:05:02;;;;;;;12.80;4.38;;;;;;;;;;10555966;27;20059;-76
2023/11/23 06:10:06;;;;;;;11.60;4.15;;;;;;;;;;10542296;27;20044;-74
2023/11/23 06:15:11;;;;;;;5.45;2.05;;;;;;;;;;10531923;28;20056;-74
2023/11/23 06:20:14;;;;;;;9.77;3.35;;;;;;;;;;10517363;28;20036;-74
2023/11/23 06:25:18;;;;;;;17.70;5.45;;;;;;;;;;10538225;28;20118;-74
2023/11/23 06:30:23;;;;;;;17.60;5.60;;;;;;;;;;10533263;27;20130;-74
2023/11/23 06:35:26;;;;;;;13.93;3.97;;;;;;;;;;10537797;27;20040;-74
2023/11/23 06:40:29;;;;;;;14.55;4.85;;;;;;;;;;10554652;27;20043;-74
2023/11/23 06:45:36;;;;;;;18.40;5.82;;;;;;;;;;10537523;27;20052;-74
2023/11/23 06:50:39;;;;;;;10.35;3.70;;;;;;;;;;10556171;28;20587;-74
2023/11/23 06:55:42;;;;;;;21.10;7.25;;;;;;;;;;10534223;27;20135;-75
2023/11/23 07:00:46;;;;;;;8.70;4.20;;;;;;;;;;10521277;27;20024;-74
2023/11/23 07:05:49;;;;;;;5.82;2.03;;;;;;;;;;10537276;27;20180;-73
2023/11/23 07:10:52;;;;;;;10.83;3.90;;;;;;;;;;10536170;27;20039;-74
2023/11/23 07:15:56;;;;;;;10.20;3.45;;;;;;;;;;10531244;27;20086;-74
2023/11/23 07:20:58;;;;;;;12.88;4.47;;;;;;;;;;10551653;27;20063;-75
2023/11/23 07:26:02;;;;;;;4.32;1.88;;;;;;;;;;10552199;27;20040;-74
2023/11/23 07:31:09;;;;;;;15.93;5.53;;;;;;;;;;10563288;27;20035;-74
2023/11/23 07:36:12;;;;;;;17.02;5.10;;;;;;;;;;10554025;27;20169;-75
2023/11/23 07:41:18;;;;;;;15.45;5.75;;;;;;;;;;10533348;28;20385;-73
2023/11/23 07:46:22;;;;;;;13.50;4.30;;;;;;;;;;10533885;27;20110;-74
2023/11/23 07:51:27;;;;;;;9.25;3.47;;;;;;;;;;10540592;28;20044;-74
2023/11/23 07:56:30;;;;;;;11.93;4.05;;;;;;;;;;10533218;27;20036;-75
2023/11/23 08:01:34;;;;;;;7.15;3.08;;;;;;;;;;10531998;28;20047;-74
2023/11/23 08:06:37;;;;;;;11.90;5.40;;;;;;;;;;10538124;27;20386;-73
2023/11/23 08:11:40;;;;;;;8.93;3.28;;;;;;;;;;10539253;27;20126;-74
2023/11/23 08:16:44;;;;;;;10.15;4.22;;;;;;;;;;10570566;27;20063;-74
2023/11/23 08:21:47;;;;;;;12.20;4.85;;;;;;;;;;10533698;28;20092;-75
2023/11/23 08:26:52;;;;;;;7.13;3.15;;;;;;;;;;10534535;27;20135;-75
2023/11/23 08:31:57;;;;;;;10.60;3.85;;;;;;;;;;10535270;28;20120;-74
2023/11/23 08:36:59;;;;;;;;;;;;;;;;;;10552556;28;20128;-74
2023/11/23 08:42:02;;;;;;;7.93;3.38;;;;;;;;;;10570946;27;20018;-75
2023/11/23 08:47:06;;;;;;;9.40;4.22;;;;;;;;;;10542663;27;20050;-75
2023/11/23 08:52:14;;;;;;;14.00;4.63;;;;;;;;;;10531619;28;20116;-74
2023/11/23 08:57:16;;;;;;;12.07;4.18;;;;;;;;;;10533693;28;20177;-74
2023/11/23 09:02:21;;;;;;;11.25;4.60;;;;;;;;;;10530574;28;20040;-75
2023/11/23 09:07:24;;;;;;;10.60;4.05;;;;;;;;;;10554487;28;20128;-75
2023/11/23 09:12:33;;;;;;;10.88;4.97;;;;;;;;;;10534516;27;20039;-76
2023/11/23 09:17:38;;;;;;;8.68;4.07;;;;;;;;;;10556248;27;20501;-75
2023/11/23 09:22:41;;;;;;;7.97;3.25;;;;;;;;;;10557300;27;20031;-75
2023/11/23 09:27:45;;;;;;;9.43;4.00;;;;;;;;;;10538979;28;21281;-74
2023/11/23 09:32:49;;;;;;;13.20;4.93;;;;;;;;;;10555151;28;20042;-74
2023/11/23 09:37:53;;;;;;;6.43;3.70;;;;;;;;;;10558652;27;20481;-74
2023/11/23 09:42:57;;;;;;;7.47;3.58;;;;;;;;;;10561188;27;20040;-74
2023/11/23 09:48:02;;;;;;;12.15;4.60;;;;;;;;;;10543194;27;20047;-74
2023/11/23 09:53:07;;;;;;;12.50;5.20;;;;;;;;;;10550966;27;20032;-73
2023/11/23 09:58:10;;;;;;;9.05;4.30;;;;;;;;;;10552519;27;20519;-73
2023/11/23 10:03:16;;;;;;;10.65;4.95;;;;;;;;;;10539155;27;20047;-72
2023/11/23 10:08:19;;;;;;;10.45;4.75;;;;;;;;;;10522766;27;20069;-76
2023/11/23 10:13:22;;;;;;;9.90;5.47;;;;;;;;;;10553612;27;20678;-74
2023/11/23 10:18:37;;;;;;;9.63;5.85;;;;;;;;;;10535658;27;20040;-75
2023/11/23 10:23:40;;;;;;;8.02;4.57;;;;;;;;;;10507543;28;20078;-75
2023/11/23 10:28:44;;;;;;;8.32;5.45;;;;;;;;;;10552939;27;20206;-73
2023/11/23 10:33:48;;;;;;;9.27;5.97;;;;;;;;;;10514877;27;20032;-75
2023/11/23 10:38:53;;;;;;;8.73;5.25;;;;;;;;;;10532814;27;20058;-74
2023/11/23 10:43:57;;;;;;;7.15;4.18;;;;;;;;;;10534126;28;20051;-74
2023/11/23 10:49:03;;;;;;;8.73;5.88;;;;;;;;;;10532926;27;20044;-74
2023/11/23 10:54:06;;;;;;;11.85;5.90;;;;;;;;;;10552385;27;20063;-75
2023/11/23 10:59:11;;;;;;;8.27;5.47;;;;;;;;;;10539922;27;20031;-75
2023/11/23 11:04:16;;;;;;;9.13;5.47;;;;;;;;;;10536683;27;20152;-74
2023/11/23 11:09:24;;;;;;;7.85;4.95;;;;;;;;;;10551285;27;20039;-75
2023/11/23 11:14:31;;;;;;;8.95;5.28;;;;;;;;;;10555827;27;20039;-75
2023/11/23 11:19:48;;;;;;;7.63;5.03;;;;;;;;;;10534726;27;20753;-75
2023/11/23 11:24:57;;;;;;;8.68;5.50;;;;;;;;;;10551930;27;20109;-75
2023/11/23 11:30:01;;;;;;;6.72;4.00;;;;;;;;;;10551974;27;20588;-74
2023/11/23 11:35:08;;;;;;;8.15;5.53;;;;;;;;;;10537122;28;20561;-74
2023/11/23 11:40:12;;;;;;;9.07;5.57;;;;;;;;;;10557472;27;20047;-75
2023/11/23 11:45:17;;;;;;;8.05;5.63;;;;;;;;;;10532123;27;20035;-75
2023/11/23 11:50:21;;;;;;;8.23;4.38;;;;;;;;;;10540423;27;20090;-75
2023/11/23 11:55:26;;;;;;;8.45;5.13;;;;;;;;;;10547897;27;20032;-74
2023/11/23 12:00:34;;;;;;;9.07;5.43;;;;;;;;;;10532344;27;20051;-74
2023/11/23 12:05:41;;;;;;;8.65;5.15;;;;;;;;;;10549919;27;20396;-74
2023/11/23 12:10:45;;;;;;;7.95;4.32;;;;;;;;;;10530365;28;20078;-75
2023/11/23 12:15:47;;;;;;;;;;;;;;;;;;10532515;27;20119;-75
2023/11/23 12:20:54;;;;;;;10.30;4.88;;;;;;;;;;10551419;27;19953;-75
2023/11/23 12:26:00;;;;;;;7.00;4.32;;;;;;;;;;10527298;27;20035;-75
2023/11/23 12:31:03;;;;;;;7.00;4.90;;;;;;;;;;10564108;27;20123;-74
2023/11/23 12:36:07;;;;;;;7.88;5.10;;;;;;;;;;10531213;28;20032;-74
2023/11/23 12:41:11;;;;;;;8.40;5.32;;;;;;;;;;10534493;28;20128;-74
2023/11/23 12:46:15;;;;;;;8.02;5.60;;;;;;;;;;10532458;28;20039;-74
2023/11/23 12:51:20;;;;;;;7.25;4.75;;;;;;;;;;10531205;28;20040;-74
2023/11/23 12:56:23;;;;;;;8.30;4.47;;;;;;;;;;10528041;28;20148;-75
2023/11/23 13:01:26;;;;;;;7.72;4.90;;;;;;;;;;10524660;28;20540;-74
2023/11/23 13:06:31;;;;;;;7.75;4.82;;;;;;;;;;10528056;28;20039;-75
2023/11/23 13:11:34;;;;;;;8.60;4.78;;;;;;;;;;10528441;28;20404;-75
2023/11/23 13:16:37;;;;;;;8.30;5.20;;;;;;;;;;10515725;28;20420;-75
2023/11/23 13:21:43;;;;;;;9.18;5.03;;;;;;;;;;10532817;28;20040;-74
2023/11/23 13:26:48;;;;;;;8.82;5.00;;;;;;;;;;10531024;28;20111;-75
2023/11/23 13:31:51;;;;;;;8.98;4.85;;;;;;;;;;10546315;28;20607;-75
2023/11/23 13:36:56;;;;;;;10.52;5.85;;;;;;;;;;10533900;28;20043;-74
2023/11/23 13:41:59;;;;;;;11.45;5.38;;;;;;;;;;10533848;28;20599;-74
2023/11/23 13:47:06;;;;;;;11.23;4.97;;;;;;;;;;10524364;28;20067;-75
2023/11/23 13:52:11;;;;;;;11.48;5.35;;;;;;;;;;10531897;28;20689;-75
2023/11/23 13:57:22;;;;;;;10.20;4.78;;;;;;;;;;10529704;28;20036;-74
2023/11/23 14:02:26;;;;;;;12.00;4.95;;;;;;;;;;10540506;27;20051;-74
2023/11/23 14:07:31;;;;;;;10.63;4.47;;;;;;;;;;10558301;27;20029;-75
2023/11/23 14:12:34;;;;;;;8.60;3.90;;;;;;;;;;10556952;27;20047;-74
2023/11/23 14:17:37;;;;;;;12.93;5.20;;;;;;;;;;10523618;27;20121;-75
2023/11/23 14:22:44;;;;;;;13.90;5.00;;;;;;;;;;10553361;27;20135;-75
2023/11/23 14:27:48;;;;;;;16.52;4.40;;;;;;;;;;10532839;27;20079;-75
2023/11/23 14:32:53;;;;;;;9.77;4.13;;;;;;;;;;10560585;27;20496;-74
2023/11/23 14:38:00;;;;;;;11.70;4.82;;;;;;;;;;10535104;27;20051;-73
2023/11/23 14:43:03;;;;;;;11.85;3.65;;;;;;;;;;10548689;27;20040;-73
2023/11/23 14:48:07;;;;;;;13.32;4.93;;;;;;;;;;10528398;27;20046;-74
2023/11/23 14:53:13;;;;;;;9.60;4.30;;;;;;;;;;10515970;27;20212;-73
2023/11/23 14:58:16;;;;;;;9.30;4.00;;;;;;;;;;10536769;27;20054;-74
2023/11/23 15:03:20;;;;;;;12.43;4.88;;;;;;;;;;10550763;28;20047;-73
2023/11/23 15:08:26;;;;;;;11.95;4.60;;;;;;;;;;10515848;27;20053;-73
2023/11/23 15:13:29;;;;;;;12.32;5.13;;;;;;;;;;10518509;27;20089;-74
2023/11/23 15:18:40;;;;;;;6.07;3.00;;;;;;;;;;10535367;27;20091;-74
2023/11/23 15:23:45;;;;;;;6.73;2.40;;;;;;;;;;10555842;27;20134;-72
2023/11/23 15:28:48;;;;;;;;;;;;;;;;;;10556816;27;20154;-73
2023/11/23 15:33:51;;;;;;;4.97;2.35;;;;;;;;;;10552767;27;20400;-75
2023/11/23 15:38:55;;;;;;;6.05;2.35;;;;;;;;;;10531366;28;20044;-73
2023/11/23 15:43:58;;;;;;;9.95;4.00;;;;;;;;;;10531233;27;20039;-74
2023/11/23 15:49:03;;;;;;;8.20;3.40;;;;;;;;;;10550797;27;20092;-73
2023/11/23 15:54:08;;;;;;;11.68;3.25;;;;;;;;;;10552007;28;20038;-74
2023/11/23 15:59:12;;;;;;;5.15;2.42;;;;;;;;;;10513918;27;20050;-73
2023/11/23 16:04:25;;;;;;;11.68;3.58;;;;;;;;;;10535970;28;20538;-75
2023/11/23 16:09:29;;;;;;;;;;;;;;;;;;10552629;27;20048;-74
2023/11/23 16:14:37;;;;;;;10.27;4.40;;;;;;;;;;10545611;27;19926;-74
2023/11/23 16:19:41;;;;;;;9.05;3.85;;;;;;;;;;10551250;27;20044;-74
2023/11/23 16:24:46;;;;;;;8.43;3.03;;;;;;;;;;10533372;27;20485;-75
2023/11/23 16:29:50;;;;;;;7.60;3.25;;;;;;;;;;10533713;28;20123;-74
2023/11/23 16:34:56;;;;;;;10.80;3.13;;;;;;;;;;10549671;27;20039;-74
2023/11/23 16:39:59;;;;;;;11.20;4.90;;;;;;;;;;10566647;27;20043;-74
2023/11/23 16:45:04;;;;;;;9.97;3.87;;;;;;;;;;10550011;27;20042;-73
2023/11/23 16:50:09;;;;;;;10.75;4.25;;;;;;;;;;10538125;28;20051;-74
2023/11/23 16:55:12;;;;;;;11.73;3.90;;;;;;;;;;10553619;28;20346;-74
2023/11/23 17:00:17;;;;;;;4.28;1.58;;;;;;;;;;10557462;28;20470;-74
2023/11/23 17:05:22;;;;;;;8.63;3.15;;;;;;;;;;10560550;28;20055;-74
2023/11/23 17:10:27;;;;;;;8.35;3.22;;;;;;;;;;10561963;28;20078;-75
2023/11/23 17:15:32;;;;;;;8.07;3.25;;;;;;;;;;10544107;28;20055;-74
2023/11/23 17:20:36;;;;;;;9.45;3.72;;;;;;;;;;10528311;28;20187;-75
2023/11/23 17:25:39;;;;;;;10.50;3.10;;;;;;;;;;10533025;28;20420;-74
2023/11/23 17:30:44;;;;;;;12.52;4.45;;;;;;;;;;10538969;28;20126;-74
2023/11/23 17:35:49;;;;;;;9.70;4.10;;;;;;;;;;10521710;27;20038;-74
2023/11/23 17:40:52;;;;;;;8.70;3.30;;;;;;;;;;10576063;27;20055;-74
2023/11/23 17:45:56;;;;;;;8.02;3.95;;;;;;;;;;10546418;28;20094;-75
2023/11/23 17:50:59;;;;;;;11.60;4.53;;;;;;;;;;10572260;28;20048;-73
2023/11/23 17:56:05;;;;;;;10.80;4.15;;;;;;;;;;10570891;27;20101;-73
2023/11/23 18:01:11;;;;;;;7.85;3.47;;;;;;;;;;10553991;27;20052;-73
2023/11/23 18:06:14;;;;;;;11.55;4.53;;;;;;;;;;10571088;28;20067;-74
2023/11/23 18:11:17;;;;;;;9.60;4.10;;;;;;;;;;10555291;27;20138;-74
2023/11/23 18:16:22;;;;;;;11.95;4.45;;;;;;;;;;10556192;27;20079;-74
2023/11/23 18:21:25;;;;;;;;;;;;;;;;;;10573040;27;20039;-74
2023/11/23 18:26:31;;;;;;;9.88;4.78;;;;;;;;;;10568083;28;20292;-75
2023/11/23 18:31:36;;;;;;;9.85;4.30;;;;;;;;;;10562000;27;20431;-74
2023/11/23 18:36:40;;;;;;;8.50;4.10;;;;;;;;;;10568337;27;20516;-76
2023/11/23 18:41:44;;;;;;;10.52;3.60;;;;;;;;;;10548059;28;20055;-75
2023/11/23 18:46:48;;;;;;;10.93;4.10;;;;;;;;;;10572751;27;20046;-74
2023/11/23 18:51:51;;;;;;;;;;;;;;;;;;10569579;27;20059;-74
2023/11/23 18:56:53;;;;;;;7.65;3.78;;;;;;;;;;10576193;27;19965;-74
2023/11/23 19:01:59;;;;;;;10.20;3.63;;;;;;;;;;10566180;27;20048;-74
2023/11/23 19:07:05;;;;;;;9.40;3.78;;;;;;;;;;10569720;28;20059;-74
2023/11/23 19:12:09;;;;;;;11.05;4.00;;;;;;;;;;10549718;28;20047;-75
2023/11/23 19:17:17;;;;;;;13.90;5.23;;;;;;;;;;10539764;28;20088;-73
2023/11/23 19:22:21;;;;;;;9.10;3.65;;;;;;;;;;10562930;27;20322;-75
2023/11/23 19:27:24;;;;;;;7.65;3.65;;;;;;;;;;10554141;28;20035;-75
2023/11/23 19:32:29;;;;;;;10.50;4.83;;;;;;;;;;10554303;28;20075;-75
2023/11/23 19:37:34;;;;;;;14.23;5.78;;;;;;;;;;10570883;27;20060;-75
2023/11/23 19:42:38;;;;;;;11.52;5.00;;;;;;;;;;10549485;28;20046;-75
2023/11/23 19:47:41;;;;;;;;;;;;;;;;;;10533806;27;20048;-74
2023/11/23 19:52:46;;;;;;;15.27;5.18;;;;;;;;;;10559230;27;20018;-75
2023/11/23 19:57:50;;;;;;;7.05;4.13;;;;;;;;;;10556530;27;20158;-74
2023/11/23 20:02:53;;;;;;;14.40;5.75;;;;;;;;;;10575695;27;20488;-73
2023/11/23 20:07:59;;;;;;;13.68;5.63;;;;;;;;;;10550867;27;20031;-75
2023/11/23 20:13:02;;;;;;;15.27;5.75;;;;;;;;;;10533359;27;20043;-74
2023/11/23 20:18:06;;;;;;;10.90;4.88;;;;;;;;;;10539643;27;20127;-75
2023/11/23 20:23:12;;;;;;;15.45;5.70;;;;;;;;;;10537439;28;20602;-75
2023/11/23 20:28:15;;;;;;;17.23;7.10;;;;;;;;;;10556237;27;20073;-76
2023/11/23 20:33:18;;;;;;;14.10;5.93;;;;;;;;;;10554207;28;20050;-75
2023/11/23 20:38:23;;;;;;;17.55;6.88;;;;;;;;;;10521573;27;20134;-78
2023/11/23 20:43:27;;;;;;;17.75;6.93;;;;;;;;;;10529092;28;20051;-76
2023/11/23 20:48:33;;;;;;;21.48;8.23;;;;;;;;;;10532625;28;20527;-76
2023/11/23 20:53:37;;;;;;;15.50;6.80;;;;;;;;;;10547948;28;20043;-75
2023/11/23 20:58:40;;;;;;;;;;;;;;;;;;10533497;28;20047;-76
2023/11/23 21:03:43;;;;;;;22.35;8.95;;;;;;;;;;10548859;28;19927;-75
2023/11/23 21:08:48;;;;;;;19.80;7.63;;;;;;;;;;10553373;28;20036;-75
2023/11/23 21:13:52;;;;;;;18.73;7.68;;;;;;;;;;10542874;28;20476;-75
2023/11/23 21:18:56;;;;;;;22.90;9.57;;;;;;;;;;10543360;28;20490;-75
2023/11/23 21:24:01;;;;;;;22.25;8.65;;;;;;;;;;10552858;27;20350;-75
2023/11/23 21:29:04;;;;;;;13.45;5.50;;;;;;;;;;10559252;27;20283;-74
2023/11/23 21:34:08;;;;;;;27.03;9.93;;;;;;;;;;10543512;27;20047;-74
2023/11/23 21:39:13;;;;;;;22.10;7.15;;;;;;;;;;10564317;27;20372;-75
2023/11/23 21:44:16;;;;;;;19.23;7.63;;;;;;;;;;10538850;28;20046;-75
2023/11/23 21:49:20;;;;;;;17.65;6.13;;;;;;;;;;10555423;27;20464;-76
2023/11/23 21:54:26;;;;;;;18.25;6.63;;;;;;;;;;10537751;28;20126;-75
2023/11/23 21:59:29;;;;;;;14.40;6.65;;;;;;;;;;10542562;27;20032;-75
2023/11/23 22:04:33;;;;;;;13.90;5.80;;;;;;;;;;10539869;28;20043;-75
2023/11/23 22:09:37;;;;;;;16.23;5.75;;;;;;;;;;10557826;27;20297;-74
2023/11/23 22:14:40;;;;;;;13.50;5.38;;;;;;;;;;10561127;27;20044;-75
2023/11/23 22:19:46;;;;;;;12.15;5.20;;;;;;;;;;10527448;27;20118;-75
2023/11/23 22:24:50;;;;;;;14.55;5.55;;;;;;;;;;10541294;27;20400;-75
2023/11/23 22:29:54;;;;;;;7.82;3.40;;;;;;;;;;10556502;27;20038;-75
2023/11/23 22:34:59;;;;;;;12.17;4.17;;;;;;;;;;10563351;28;20042;-75
2023/11/23 22:40:06;;;;;;;14.85;5.10;;;;;;;;;;10555520;27;20128;-75
2023/11/23 22:45:11;;;;;;;10.63;4.53;;;;;;;;;;10553854;27;20128;-75
2023/11/23 22:50:14;;;;;;;14.55;5.35;;;;;;;;;;10552802;27;20640;-75
2023/11/23 22:55:18;;;;;;;12.60;4.45;;;;;;;;;;10552515;28;20130;-74
2023/11/23 23:00:26;;;;;;;11.40;5.60;;;;;;;;;;10551492;27;20400;-75
2023/11/23 23:05:30;;;;;;;13.88;6.32;;;;;;;;;;10556286;27;20054;-75
2023/11/23 23:10:36;;;;;;;12.45;4.45;;;;;;;;;;10533323;27;20288;-74
2023/11/23 23:15:40;;;;;;;8.95;3.33;;;;;;;;;;10553487;27;20052;-75
2023/11/23 23:20:46;;;;;;;9.27;3.70;;;;;;;;;;10551688;28;20039;-76
2023/11/23 23:25:51;;;;;;;14.68;5.05;;;;;;;;;;10535595;27;20042;-76
2023/11/23 23:30:54;;;;;;;10.55;3.78;;;;;;;;;;10559136;27;20046;-76
2023/11/23 23:35:58;;;;;;;13.50;4.53;;;;;;;;;;10539304;27;20054;-75
2023/11/23 23:41:02;;;;;;;8.45;3.33;;;;;;;;;;10567564;27;20161;-75
2023/11/23 23:46:04;;;;;;;;;;;;;;;;;;10556896;27;20520;-75
2023/11/23 23:51:07;;;;;;;12.52;3.70;;;;;;;;;;10551209;28;20475;-76
2023/11/23 23:56:12;;;;;;;8.45;3.25;;;;;;;;;;10533587;27;20059;-74
